sensor_id;sensor_type;location;lat;lon;timestamp;P1;durP1;ratioP1;P2;durP2;ratioP2
2257;SDS011;1136;51.574;7.706;2024-03-02T00:02:11;3.07;;;2.80;;
2257;SDS011;1136;51.574;7.706;2024-03-02T00:05:19;5.50;;;4.10;;
2257;SDS011;1136;51.574;7.706;2024-03-02T00:08:25;3.70;;;3.40;;
2257;SDS011;1136;51.574;7.706;2024-03-02T00:11:29;3.40;;;2.87;;
2257;SDS011;1136;51.574;7.706;2024-03-02T00:14:34;3.40;;;3.10;;
2257;SDS011;1136;51.574;7.706;2024-03-02T00:17:38;3.07;;;2.87;;
2257;SDS011;1136;51.574;7.706;2024-03-02T00:20:43;4.90;;;3.27;;
2257;SDS011;1136;51.574;7.706;2024-03-02T00:23:47;2.60;;;2.40;;
2257;SDS011;1136;51.574;7.706;2024-03-02T00:26:52;2.70;;;2.50;;
2257;SDS011;1136;51.574;7.706;2024-03-02T00:29:56;3.13;;;2.93;;
2257;SDS011;1136;51.574;7.706;2024-03-02T00:33:01;2.70;;;2.50;;
2257;SDS011;1136;51.574;7.706;2024-03-02T00:36:06;2.20;;;2.10;;
2257;SDS011;1136;51.574;7.706;2024-03-02T00:39:12;3.73;;;2.57;;
2257;SDS011;1136;51.574;7.706;2024-03-02T00:42:17;4.30;;;2.40;;
2257;SDS011;1136;51.574;7.706;2024-03-02T00:45:21;2.53;;;2.33;;
2257;SDS011;1136;51.574;7.706;2024-03-02T00:48:25;4.37;;;3.97;;
2257;SDS011;1136;51.574;7.706;2024-03-02T00:51:32;2.77;;;2.57;;
2257;SDS011;1136;51.574;7.706;2024-03-02T00:54:37;2.67;;;2.47;;
2257;SDS011;1136;51.574;7.706;2024-03-02T00:57:41;2.70;;;2.50;;
2257;SDS011;1136;51.574;7.706;2024-03-02T01:00:45;3.10;;;2.80;;
2257;SDS011;1136;51.574;7.706;2024-03-02T01:03:49;3.30;;;3.03;;
2257;SDS011;1136;51.574;7.706;2024-03-02T01:06:54;2.73;;;2.53;;
2257;SDS011;1136;51.574;7.706;2024-03-02T01:09:58;3.87;;;3.10;;
2257;SDS011;1136;51.574;7.706;2024-03-02T01:13:02;3.13;;;2.80;;
2257;SDS011;1136;51.574;7.706;2024-03-02T01:16:07;2.73;;;2.50;;
2257;SDS011;1136;51.574;7.706;2024-03-02T01:19:11;3.00;;;2.80;;
2257;SDS011;1136;51.574;7.706;2024-03-02T01:22:15;2.77;;;2.53;;
2257;SDS011;1136;51.574;7.706;2024-03-02T01:25:19;2.93;;;2.73;;
2257;SDS011;1136;51.574;7.706;2024-03-02T01:28:24;2.80;;;2.47;;
2257;SDS011;1136;51.574;7.706;2024-03-02T01:31:28;3.33;;;2.70;;
2257;SDS011;1136;51.574;7.706;2024-03-02T01:34:32;3.33;;;2.63;;
2257;SDS011;1136;51.574;7.706;2024-03-02T01:37:36;2.70;;;2.50;;
2257;SDS011;1136;51.574;7.706;2024-03-02T01:40:41;2.87;;;2.37;;
2257;SDS011;1136;51.574;7.706;2024-03-02T01:43:46;2.80;;;2.53;;
2257;SDS011;1136;51.574;7.706;2024-03-02T01:46:50;2.57;;;2.37;;
2257;SDS011;1136;51.574;7.706;2024-03-02T01:49:54;2.80;;;2.10;;
2257;SDS011;1136;51.574;7.706;2024-03-02T01:52:58;2.33;;;2.13;;
2257;SDS011;1136;51.574;7.706;2024-03-02T01:56:03;2.27;;;2.07;;
2257;SDS011;1136;51.574;7.706;2024-03-02T01:59:08;2.73;;;2.30;;
2257;SDS011;1136;51.574;7.706;2024-03-02T02:02:12;2.27;;;2.07;;
2257;SDS011;1136;51.574;7.706;2024-03-02T02:05:16;2.53;;;2.33;;
2257;SDS011;1136;51.574;7.706;2024-03-02T02:08:21;2.30;;;2.10;;
2257;SDS011;1136;51.574;7.706;2024-03-02T02:11:25;1.80;;;1.70;;
2257;SDS011;1136;51.574;7.706;2024-03-02T02:14:29;2.10;;;1.90;;
2257;SDS011;1136;51.574;7.706;2024-03-02T02:17:33;2.90;;;2.40;;
2257;SDS011;1136;51.574;7.706;2024-03-02T02:20:37;1.90;;;1.80;;
2257;SDS011;1136;51.574;7.706;2024-03-02T02:23:41;1.83;;;1.57;;
2257;SDS011;1136;51.574;7.706;2024-03-02T02:26:50;2.40;;;2.20;;
2257;SDS011;1136;51.574;7.706;2024-03-02T02:29:53;3.83;;;2.30;;
2257;SDS011;1136;51.574;7.706;2024-03-02T02:33:00;2.33;;;1.90;;
2257;SDS011;1136;51.574;7.706;2024-03-02T02:36:04;1.97;;;1.77;;
2257;SDS011;1136;51.574;7.706;2024-03-02T02:39:10;1.60;;;1.50;;
2257;SDS011;1136;51.574;7.706;2024-03-02T02:42:17;5.27;;;2.10;;
2257;SDS011;1136;51.574;7.706;2024-03-02T02:45:21;2.40;;;1.70;;
2257;SDS011;1136;51.574;7.706;2024-03-02T02:48:25;3.00;;;2.10;;
2257;SDS011;1136;51.574;7.706;2024-03-02T02:51:29;2.60;;;2.13;;
2257;SDS011;1136;51.574;7.706;2024-03-02T02:54:33;2.20;;;2.00;;
2257;SDS011;1136;51.574;7.706;2024-03-02T02:57:38;3.53;;;1.77;;
2257;SDS011;1136;51.574;7.706;2024-03-02T03:00:43;4.23;;;1.80;;
2257;SDS011;1136;51.574;7.706;2024-03-02T03:03:47;11.33;;;2.80;;
2257;SDS011;1136;51.574;7.706;2024-03-02T03:06:52;1.90;;;1.80;;
2257;SDS011;1136;51.574;7.706;2024-03-02T03:09:56;3.00;;;2.13;;
2257;SDS011;1136;51.574;7.706;2024-03-02T03:13:00;3.73;;;2.00;;
2257;SDS011;1136;51.574;7.706;2024-03-02T03:16:04;2.23;;;2.13;;
2257;SDS011;1136;51.574;7.706;2024-03-02T03:19:09;3.10;;;1.83;;
2257;SDS011;1136;51.574;7.706;2024-03-02T03:22:14;4.20;;;1.90;;
2257;SDS011;1136;51.574;7.706;2024-03-02T03:25:18;2.00;;;1.83;;
2257;SDS011;1136;51.574;7.706;2024-03-02T03:28:22;2.27;;;2.03;;
2257;SDS011;1136;51.574;7.706;2024-03-02T03:31:26;3.07;;;2.10;;
2257;SDS011;1136;51.574;7.706;2024-03-02T03:34:33;2.13;;;1.87;;
2257;SDS011;1136;51.574;7.706;2024-03-02T03:37:38;2.03;;;1.90;;
2257;SDS011;1136;51.574;7.706;2024-03-02T03:40:42;2.33;;;2.13;;
2257;SDS011;1136;51.574;7.706;2024-03-02T03:43:47;3.47;;;1.90;;
2257;SDS011;1136;51.574;7.706;2024-03-02T03:46:51;2.57;;;2.07;;
2257;SDS011;1136;51.574;7.706;2024-03-02T03:49:56;2.00;;;1.80;;
2257;SDS011;1136;51.574;7.706;2024-03-02T03:53:00;2.43;;;2.10;;
2257;SDS011;1136;51.574;7.706;2024-03-02T03:56:04;2.80;;;1.80;;
2257;SDS011;1136;51.574;7.706;2024-03-02T03:59:09;1.83;;;1.73;;
2257;SDS011;1136;51.574;7.706;2024-03-02T04:02:13;1.87;;;1.77;;
2257;SDS011;1136;51.574;7.706;2024-03-02T04:05:17;2.20;;;1.80;;
2257;SDS011;1136;51.574;7.706;2024-03-02T04:08:21;3.43;;;2.70;;
2257;SDS011;1136;51.574;7.706;2024-03-02T04:11:25;4.13;;;1.97;;
2257;SDS011;1136;51.574;7.706;2024-03-02T04:14:30;2.57;;;2.37;;
2257;SDS011;1136;51.574;7.706;2024-03-02T04:17:34;4.30;;;1.90;;
2257;SDS011;1136;51.574;7.706;2024-03-02T04:20:40;3.93;;;2.37;;
2257;SDS011;1136;51.574;7.706;2024-03-02T04:23:44;2.67;;;2.17;;
2257;SDS011;1136;51.574;7.706;2024-03-02T04:26:48;4.57;;;2.73;;
2257;SDS011;1136;51.574;7.706;2024-03-02T04:29:52;2.37;;;2.17;;
2257;SDS011;1136;51.574;7.706;2024-03-02T04:32:56;2.60;;;2.40;;
2257;SDS011;1136;51.574;7.706;2024-03-02T04:36:00;2.67;;;2.47;;
2257;SDS011;1136;51.574;7.706;2024-03-02T04:39:04;4.20;;;2.80;;
2257;SDS011;1136;51.574;7.706;2024-03-02T04:42:08;3.30;;;2.07;;
2257;SDS011;1136;51.574;7.706;2024-03-02T04:45:12;2.57;;;2.37;;
2257;SDS011;1136;51.574;7.706;2024-03-02T04:48:17;2.10;;;2.00;;
2257;SDS011;1136;51.574;7.706;2024-03-02T04:51:21;3.53;;;3.23;;
2257;SDS011;1136;51.574;7.706;2024-03-02T04:54:26;2.83;;;2.63;;
2257;SDS011;1136;51.574;7.706;2024-03-02T04:57:31;3.43;;;3.10;;
2257;SDS011;1136;51.574;7.706;2024-03-02T05:00:35;2.70;;;2.50;;
2257;SDS011;1136;51.574;7.706;2024-03-02T05:03:39;3.97;;;2.67;;
2257;SDS011;1136;51.574;7.706;2024-03-02T05:06:43;3.43;;;2.30;;
2257;SDS011;1136;51.574;7.706;2024-03-02T05:09:47;2.33;;;2.13;;
2257;SDS011;1136;51.574;7.706;2024-03-02T05:12:52;2.47;;;2.27;;
2257;SDS011;1136;51.574;7.706;2024-03-02T05:16:04;2.50;;;2.40;;
2257;SDS011;1136;51.574;7.706;2024-03-02T05:19:08;8.03;;;5.30;;
2257;SDS011;1136;51.574;7.706;2024-03-02T05:22:12;3.23;;;3.00;;
2257;SDS011;1136;51.574;7.706;2024-03-02T05:25:16;2.90;;;2.70;;
2257;SDS011;1136;51.574;7.706;2024-03-02T05:28:21;3.50;;;3.20;;
2257;SDS011;1136;51.574;7.706;2024-03-02T05:31:24;5.70;;;4.03;;
2257;SDS011;1136;51.574;7.706;2024-03-02T05:34:29;4.77;;;3.90;;
2257;SDS011;1136;51.574;7.706;2024-03-02T05:37:34;4.87;;;2.60;;
2257;SDS011;1136;51.574;7.706;2024-03-02T05:40:38;2.90;;;2.60;;
2257;SDS011;1136;51.574;7.706;2024-03-02T05:43:42;6.90;;;3.87;;
2257;SDS011;1136;51.574;7.706;2024-03-02T05:46:47;4.87;;;4.43;;
2257;SDS011;1136;51.574;7.706;2024-03-02T05:49:51;3.73;;;3.40;;
2257;SDS011;1136;51.574;7.706;2024-03-02T05:52:55;5.57;;;4.27;;
2257;SDS011;1136;51.574;7.706;2024-03-02T05:56:00;6.63;;;3.13;;
2257;SDS011;1136;51.574;7.706;2024-03-02T05:59:08;8.40;;;3.13;;
2257;SDS011;1136;51.574;7.706;2024-03-02T06:02:17;4.20;;;3.73;;
2257;SDS011;1136;51.574;7.706;2024-03-02T06:05:21;9.17;;;4.03;;
2257;SDS011;1136;51.574;7.706;2024-03-02T06:08:25;5.90;;;3.20;;
2257;SDS011;1136;51.574;7.706;2024-03-02T06:11:30;4.53;;;3.53;;
2257;SDS011;1136;51.574;7.706;2024-03-02T06:14:34;3.10;;;2.70;;
2257;SDS011;1136;51.574;7.706;2024-03-02T06:17:41;4.70;;;3.90;;
2257;SDS011;1136;51.574;7.706;2024-03-02T06:20:45;4.13;;;3.50;;
2257;SDS011;1136;51.574;7.706;2024-03-02T06:23:48;3.90;;;3.60;;
2257;SDS011;1136;51.574;7.706;2024-03-02T06:26:53;5.40;;;3.70;;
2257;SDS011;1136;51.574;7.706;2024-03-02T06:29:59;5.43;;;3.50;;
2257;SDS011;1136;51.574;7.706;2024-03-02T06:33:03;5.70;;;3.47;;
2257;SDS011;1136;51.574;7.706;2024-03-02T06:36:09;3.30;;;3.00;;
2257;SDS011;1136;51.574;7.706;2024-03-02T06:39:13;5.20;;;3.10;;
2257;SDS011;1136;51.574;7.706;2024-03-02T06:42:17;3.73;;;3.27;;
2257;SDS011;1136;51.574;7.706;2024-03-02T06:45:21;3.73;;;3.03;;
2257;SDS011;1136;51.574;7.706;2024-03-02T06:48:25;8.23;;;3.77;;
2257;SDS011;1136;51.574;7.706;2024-03-02T06:51:29;3.70;;;3.40;;
2257;SDS011;1136;51.574;7.706;2024-03-02T06:54:33;3.90;;;3.47;;
2257;SDS011;1136;51.574;7.706;2024-03-02T06:57:38;4.30;;;4.00;;
2257;SDS011;1136;51.574;7.706;2024-03-02T07:00:43;3.90;;;3.60;;
2257;SDS011;1136;51.574;7.706;2024-03-02T07:03:51;5.53;;;4.37;;
2257;SDS011;1136;51.574;7.706;2024-03-02T07:06:58;4.23;;;3.83;;
2257;SDS011;1136;51.574;7.706;2024-03-02T07:10:02;5.00;;;4.30;;
2257;SDS011;1136;51.574;7.706;2024-03-02T07:13:08;5.40;;;4.43;;
2257;SDS011;1136;51.574;7.706;2024-03-02T07:16:12;6.50;;;4.00;;
2257;SDS011;1136;51.574;7.706;2024-03-02T07:19:31;5.33;;;3.90;;
2257;SDS011;1136;51.574;7.706;2024-03-02T07:22:36;4.40;;;4.10;;
2257;SDS011;1136;51.574;7.706;2024-03-02T07:25:44;7.03;;;4.90;;
2257;SDS011;1136;51.574;7.706;2024-03-02T07:28:51;4.50;;;3.90;;
2257;SDS011;1136;51.574;7.706;2024-03-02T07:31:55;5.73;;;4.83;;
2257;SDS011;1136;51.574;7.706;2024-03-02T07:34:59;4.20;;;3.83;;
2257;SDS011;1136;51.574;7.706;2024-03-02T07:38:05;4.30;;;3.90;;
2257;SDS011;1136;51.574;7.706;2024-03-02T07:41:08;4.73;;;3.87;;
2257;SDS011;1136;51.574;7.706;2024-03-02T07:44:13;4.40;;;3.30;;
2257;SDS011;1136;51.574;7.706;2024-03-02T07:47:18;4.17;;;3.23;;
2257;SDS011;1136;51.574;7.706;2024-03-02T07:50:22;4.30;;;3.57;;
2257;SDS011;1136;51.574;7.706;2024-03-02T07:53:26;4.20;;;3.70;;
2257;SDS011;1136;51.574;7.706;2024-03-02T07:56:31;3.10;;;2.70;;
2257;SDS011;1136;51.574;7.706;2024-03-02T07:59:35;6.90;;;3.40;;
2257;SDS011;1136;51.574;7.706;2024-03-02T08:02:39;6.07;;;3.80;;
2257;SDS011;1136;51.574;7.706;2024-03-02T08:05:47;4.60;;;3.60;;
2257;SDS011;1136;51.574;7.706;2024-03-02T08:08:51;5.10;;;3.83;;
2257;SDS011;1136;51.574;7.706;2024-03-02T08:11:55;4.90;;;3.27;;
2257;SDS011;1136;51.574;7.706;2024-03-02T08:15:01;3.90;;;3.50;;
2257;SDS011;1136;51.574;7.706;2024-03-02T08:18:05;3.73;;;3.00;;
2257;SDS011;1136;51.574;7.706;2024-03-02T08:21:10;3.93;;;3.63;;
2257;SDS011;1136;51.574;7.706;2024-03-02T08:24:14;4.93;;;3.13;;
2257;SDS011;1136;51.574;7.706;2024-03-02T08:27:18;4.37;;;3.97;;
2257;SDS011;1136;51.574;7.706;2024-03-02T08:30:22;5.50;;;3.37;;
2257;SDS011;1136;51.574;7.706;2024-03-02T08:33:27;2.90;;;2.70;;
2257;SDS011;1136;51.574;7.706;2024-03-02T08:36:31;3.83;;;3.53;;
2257;SDS011;1136;51.574;7.706;2024-03-02T08:39:35;4.13;;;3.00;;
2257;SDS011;1136;51.574;7.706;2024-03-02T08:42:39;5.60;;;3.03;;
2257;SDS011;1136;51.574;7.706;2024-03-02T08:45:43;3.60;;;3.30;;
2257;SDS011;1136;51.574;7.706;2024-03-02T08:48:48;2.80;;;2.60;;
2257;SDS011;1136;51.574;7.706;2024-03-02T08:51:52;2.73;;;2.53;;
2257;SDS011;1136;51.574;7.706;2024-03-02T08:55:00;4.07;;;3.00;;
2257;SDS011;1136;51.574;7.706;2024-03-02T08:58:05;2.90;;;2.60;;
2257;SDS011;1136;51.574;7.706;2024-03-02T09:01:11;18.70;;;14.63;;
2257;SDS011;1136;51.574;7.706;2024-03-02T09:04:15;5.40;;;4.77;;
2257;SDS011;1136;51.574;7.706;2024-03-02T09:07:19;3.60;;;2.73;;
2257;SDS011;1136;51.574;7.706;2024-03-02T09:10:23;3.10;;;2.80;;
2257;SDS011;1136;51.574;7.706;2024-03-02T09:13:31;3.97;;;2.93;;
2257;SDS011;1136;51.574;7.706;2024-03-02T09:16:35;3.27;;;2.97;;
2257;SDS011;1136;51.574;7.706;2024-03-02T09:19:39;2.80;;;2.57;;
2257;SDS011;1136;51.574;7.706;2024-03-02T09:22:44;3.57;;;3.27;;
2257;SDS011;1136;51.574;7.706;2024-03-02T09:25:51;2.70;;;2.50;;
2257;SDS011;1136;51.574;7.706;2024-03-02T09:28:55;2.93;;;2.50;;
2257;SDS011;1136;51.574;7.706;2024-03-02T09:32:00;3.00;;;2.80;;
2257;SDS011;1136;51.574;7.706;2024-03-02T09:35:04;3.53;;;2.80;;
2257;SDS011;1136;51.574;7.706;2024-03-02T09:38:08;2.70;;;2.50;;
2257;SDS011;1136;51.574;7.706;2024-03-02T09:41:12;3.30;;;2.20;;
2257;SDS011;1136;51.574;7.706;2024-03-02T09:44:17;2.23;;;2.03;;
2257;SDS011;1136;51.574;7.706;2024-03-02T09:47:21;3.57;;;3.23;;
2257;SDS011;1136;51.574;7.706;2024-03-02T09:50:26;3.20;;;2.10;;
2257;SDS011;1136;51.574;7.706;2024-03-02T09:53:31;2.00;;;1.90;;
2257;SDS011;1136;51.574;7.706;2024-03-02T09:56:35;2.87;;;2.50;;
2257;SDS011;1136;51.574;7.706;2024-03-02T09:59:39;2.87;;;2.20;;
2257;SDS011;1136;51.574;7.706;2024-03-02T10:02:43;2.77;;;2.03;;
2257;SDS011;1136;51.574;7.706;2024-03-02T10:05:48;3.77;;;1.83;;
2257;SDS011;1136;51.574;7.706;2024-03-02T10:08:53;1.67;;;1.57;;
2257;SDS011;1136;51.574;7.706;2024-03-02T10:12:05;2.80;;;1.70;;
2257;SDS011;1136;51.574;7.706;2024-03-02T10:15:09;3.63;;;1.90;;
2257;SDS011;1136;51.574;7.706;2024-03-02T10:18:14;2.10;;;1.90;;
2257;SDS011;1136;51.574;7.706;2024-03-02T10:21:19;1.70;;;1.60;;
2257;SDS011;1136;51.574;7.706;2024-03-02T10:24:24;1.90;;;1.73;;
2257;SDS011;1136;51.574;7.706;2024-03-02T10:27:29;2.27;;;1.90;;
2257;SDS011;1136;51.574;7.706;2024-03-02T10:30:34;2.20;;;1.70;;
2257;SDS011;1136;51.574;7.706;2024-03-02T10:33:38;1.77;;;1.67;;
2257;SDS011;1136;51.574;7.706;2024-03-02T10:36:43;1.90;;;1.60;;
2257;SDS011;1136;51.574;7.706;2024-03-02T10:39:49;1.57;;;1.47;;
2257;SDS011;1136;51.574;7.706;2024-03-02T10:42:53;2.63;;;1.30;;
2257;SDS011;1136;51.574;7.706;2024-03-02T10:45:57;1.53;;;1.43;;
2257;SDS011;1136;51.574;7.706;2024-03-02T10:49:02;2.30;;;1.40;;
2257;SDS011;1136;51.574;7.706;2024-03-02T10:52:11;1.50;;;1.40;;
2257;SDS011;1136;51.574;7.706;2024-03-02T10:55:15;4.40;;;1.77;;
2257;SDS011;1136;51.574;7.706;2024-03-02T10:58:20;1.40;;;1.30;;
2257;SDS011;1136;51.574;7.706;2024-03-02T11:01:24;1.40;;;1.30;;
2257;SDS011;1136;51.574;7.706;2024-03-02T11:04:30;1.63;;;1.53;;
2257;SDS011;1136;51.574;7.706;2024-03-02T11:07:34;1.40;;;1.30;;
2257;SDS011;1136;51.574;7.706;2024-03-02T11:10:58;1.57;;;1.47;;
2257;SDS011;1136;51.574;7.706;2024-03-02T11:14:11;1.40;;;1.30;;
2257;SDS011;1136;51.574;7.706;2024-03-02T11:17:17;1.50;;;1.40;;
2257;SDS011;1136;51.574;7.706;2024-03-02T11:20:22;1.83;;;1.47;;
2257;SDS011;1136;51.574;7.706;2024-03-02T11:23:33;1.53;;;1.43;;
2257;SDS011;1136;51.574;7.706;2024-03-02T11:26:38;1.40;;;1.30;;
2257;SDS011;1136;51.574;7.706;2024-03-02T11:29:43;1.47;;;1.37;;
2257;SDS011;1136;51.574;7.706;2024-03-02T11:32:54;1.90;;;1.80;;
2257;SDS011;1136;51.574;7.706;2024-03-02T11:35:59;1.33;;;1.23;;
2257;SDS011;1136;51.574;7.706;2024-03-02T11:39:05;2.40;;;1.47;;
2257;SDS011;1136;51.574;7.706;2024-03-02T11:42:09;1.67;;;1.57;;
2257;SDS011;1136;51.574;7.706;2024-03-02T11:45:16;4.27;;;1.50;;
2257;SDS011;1136;51.574;7.706;2024-03-02T11:48:20;1.73;;;1.63;;
2257;SDS011;1136;51.574;7.706;2024-03-02T11:51:24;2.03;;;1.80;;
2257;SDS011;1136;51.574;7.706;2024-03-02T11:54:30;1.30;;;1.20;;
2257;SDS011;1136;51.574;7.706;2024-03-02T11:57:37;1.33;;;1.20;;
2257;SDS011;1136;51.574;7.706;2024-03-02T12:00:41;1.60;;;1.47;;
2257;SDS011;1136;51.574;7.706;2024-03-02T12:03:46;1.57;;;1.20;;
2257;SDS011;1136;51.574;7.706;2024-03-02T12:06:59;1.50;;;1.40;;
2257;SDS011;1136;51.574;7.706;2024-03-02T12:10:04;1.80;;;1.70;;
2257;SDS011;1136;51.574;7.706;2024-03-02T12:13:10;1.30;;;1.20;;
2257;SDS011;1136;51.574;7.706;2024-03-02T12:16:22;1.07;;;0.93;;
2257;SDS011;1136;51.574;7.706;2024-03-02T12:19:27;2.43;;;1.30;;
2257;SDS011;1136;51.574;7.706;2024-03-02T12:22:33;1.87;;;1.20;;
2257;SDS011;1136;51.574;7.706;2024-03-02T12:25:38;1.30;;;1.20;;
2257;SDS011;1136;51.574;7.706;2024-03-02T12:28:42;1.13;;;1.03;;
2257;SDS011;1136;51.574;7.706;2024-03-02T12:31:50;1.77;;;1.57;;
2257;SDS011;1136;51.574;7.706;2024-03-02T12:34:55;1.53;;;1.43;;
2257;SDS011;1136;51.574;7.706;2024-03-02T12:37:59;1.40;;;1.30;;
2257;SDS011;1136;51.574;7.706;2024-03-02T12:41:03;1.93;;;1.50;;
2257;SDS011;1136;51.574;7.706;2024-03-02T12:44:09;1.73;;;1.50;;
2257;SDS011;1136;51.574;7.706;2024-03-02T12:47:13;1.30;;;1.20;;
2257;SDS011;1136;51.574;7.706;2024-03-02T12:50:17;1.20;;;1.10;;
2257;SDS011;1136;51.574;7.706;2024-03-02T12:53:22;2.47;;;1.50;;
2257;SDS011;1136;51.574;7.706;2024-03-02T12:56:25;1.20;;;1.10;;
2257;SDS011;1136;51.574;7.706;2024-03-02T12:59:30;1.27;;;1.17;;
2257;SDS011;1136;51.574;7.706;2024-03-02T13:02:36;1.20;;;1.07;;
2257;SDS011;1136;51.574;7.706;2024-03-02T13:05:40;1.07;;;0.97;;
2257;SDS011;1136;51.574;7.706;2024-03-02T13:08:44;1.03;;;0.93;;
2257;SDS011;1136;51.574;7.706;2024-03-02T13:11:49;1.10;;;0.93;;
2257;SDS011;1136;51.574;7.706;2024-03-02T13:14:54;1.10;;;1.00;;
2257;SDS011;1136;51.574;7.706;2024-03-02T13:17:58;1.80;;;1.10;;
2257;SDS011;1136;51.574;7.706;2024-03-02T13:21:04;1.40;;;1.30;;
2257;SDS011;1136;51.574;7.706;2024-03-02T13:24:08;1.00;;;0.90;;
2257;SDS011;1136;51.574;7.706;2024-03-02T13:27:13;1.47;;;1.10;;
2257;SDS011;1136;51.574;7.706;2024-03-02T13:30:17;2.07;;;1.20;;
2257;SDS011;1136;51.574;7.706;2024-03-02T13:33:21;1.10;;;1.00;;
2257;SDS011;1136;51.574;7.706;2024-03-02T13:36:26;1.13;;;1.03;;
2257;SDS011;1136;51.574;7.706;2024-03-02T13:39:30;2.00;;;1.10;;
2257;SDS011;1136;51.574;7.706;2024-03-02T13:42:35;1.43;;;1.33;;
2257;SDS011;1136;51.574;7.706;2024-03-02T13:45:39;1.20;;;1.10;;
2257;SDS011;1136;51.574;7.706;2024-03-02T13:48:43;1.67;;;0.97;;
2257;SDS011;1136;51.574;7.706;2024-03-02T13:51:47;2.80;;;1.10;;
2257;SDS011;1136;51.574;7.706;2024-03-02T13:54:51;1.40;;;1.30;;
2257;SDS011;1136;51.574;7.706;2024-03-02T13:57:56;1.80;;;0.93;;
2257;SDS011;1136;51.574;7.706;2024-03-02T14:01:00;0.97;;;0.87;;
2257;SDS011;1136;51.574;7.706;2024-03-02T14:04:08;1.17;;;1.07;;
2257;SDS011;1136;51.574;7.706;2024-03-02T14:07:12;1.30;;;1.17;;
2257;SDS011;1136;51.574;7.706;2024-03-02T14:10:16;1.23;;;1.00;;
2257;SDS011;1136;51.574;7.706;2024-03-02T14:13:26;1.10;;;1.00;;
2257;SDS011;1136;51.574;7.706;2024-03-02T14:16:30;1.40;;;1.30;;
2257;SDS011;1136;51.574;7.706;2024-03-02T14:19:34;1.30;;;1.20;;
2257;SDS011;1136;51.574;7.706;2024-03-02T14:22:39;1.53;;;1.10;;
2257;SDS011;1136;51.574;7.706;2024-03-02T14:25:44;0.93;;;0.90;;
2257;SDS011;1136;51.574;7.706;2024-03-02T14:28:48;1.30;;;1.20;;
2257;SDS011;1136;51.574;7.706;2024-03-02T14:31:55;2.17;;;1.20;;
2257;SDS011;1136;51.574;7.706;2024-03-02T14:34:59;3.00;;;2.27;;
2257;SDS011;1136;51.574;7.706;2024-03-02T14:38:03;1.57;;;1.20;;
2257;SDS011;1136;51.574;7.706;2024-03-02T14:41:07;1.23;;;1.13;;
2257;SDS011;1136;51.574;7.706;2024-03-02T14:44:12;2.23;;;1.10;;
2257;SDS011;1136;51.574;7.706;2024-03-02T14:47:16;2.20;;;2.00;;
2257;SDS011;1136;51.574;7.706;2024-03-02T14:50:20;3.23;;;2.67;;
2257;SDS011;1136;51.574;7.706;2024-03-02T14:53:24;1.93;;;1.47;;
2257;SDS011;1136;51.574;7.706;2024-03-02T14:56:28;1.77;;;1.20;;
2257;SDS011;1136;51.574;7.706;2024-03-02T14:59:33;1.70;;;1.60;;
2257;SDS011;1136;51.574;7.706;2024-03-02T15:02:37;2.50;;;2.30;;
2257;SDS011;1136;51.574;7.706;2024-03-02T15:05:41;1.37;;;1.27;;
2257;SDS011;1136;51.574;7.706;2024-03-02T15:08:46;1.70;;;1.60;;
2257;SDS011;1136;51.574;7.706;2024-03-02T15:11:50;2.73;;;1.43;;
2257;SDS011;1136;51.574;7.706;2024-03-02T15:14:58;1.63;;;1.40;;
2257;SDS011;1136;51.574;7.706;2024-03-02T15:18:02;1.40;;;1.30;;
2257;SDS011;1136;51.574;7.706;2024-03-02T15:21:09;2.30;;;1.97;;
2257;SDS011;1136;51.574;7.706;2024-03-02T15:24:13;2.20;;;2.00;;
2257;SDS011;1136;51.574;7.706;2024-03-02T15:27:20;2.60;;;2.33;;
2257;SDS011;1136;51.574;7.706;2024-03-02T15:30:24;1.67;;;1.57;;
2257;SDS011;1136;51.574;7.706;2024-03-02T15:33:28;1.27;;;1.17;;
2257;SDS011;1136;51.574;7.706;2024-03-02T15:36:36;1.20;;;1.10;;
2257;SDS011;1136;51.574;7.706;2024-03-02T15:39:41;2.10;;;2.00;;
2257;SDS011;1136;51.574;7.706;2024-03-02T15:42:45;13.70;;;2.73;;
2257;SDS011;1136;51.574;7.706;2024-03-02T15:45:49;1.60;;;1.50;;
2257;SDS011;1136;51.574;7.706;2024-03-02T15:48:56;2.27;;;2.07;;
2257;SDS011;1136;51.574;7.706;2024-03-02T15:52:01;1.30;;;1.20;;
2257;SDS011;1136;51.574;7.706;2024-03-02T15:55:07;2.23;;;1.20;;
2257;SDS011;1136;51.574;7.706;2024-03-02T15:58:12;3.90;;;3.60;;
2257;SDS011;1136;51.574;7.706;2024-03-02T16:01:16;2.07;;;1.87;;
2257;SDS011;1136;51.574;7.706;2024-03-02T16:04:20;2.23;;;2.00;;
2257;SDS011;1136;51.574;7.706;2024-03-02T16:07:24;4.33;;;3.93;;
2257;SDS011;1136;51.574;7.706;2024-03-02T16:10:29;11.17;;;6.83;;
2257;SDS011;1136;51.574;7.706;2024-03-02T16:13:33;3.97;;;3.47;;
2257;SDS011;1136;51.574;7.706;2024-03-02T16:16:37;16.87;;;10.77;;
2257;SDS011;1136;51.574;7.706;2024-03-02T16:19:41;3.60;;;2.97;;
2257;SDS011;1136;51.574;7.706;2024-03-02T16:22:48;2.40;;;2.20;;
2257;SDS011;1136;51.574;7.706;2024-03-02T16:25:52;2.47;;;2.20;;
2257;SDS011;1136;51.574;7.706;2024-03-02T16:28:57;3.40;;;3.17;;
2257;SDS011;1136;51.574;7.706;2024-03-02T16:32:01;2.80;;;2.60;;
2257;SDS011;1136;51.574;7.706;2024-03-02T16:35:05;2.20;;;2.00;;
2257;SDS011;1136;51.574;7.706;2024-03-02T16:38:10;2.73;;;2.00;;
2257;SDS011;1136;51.574;7.706;2024-03-02T16:41:14;2.73;;;2.10;;
2257;SDS011;1136;51.574;7.706;2024-03-02T16:44:20;3.80;;;1.83;;
2257;SDS011;1136;51.574;7.706;2024-03-02T16:47:24;2.63;;;1.97;;
2257;SDS011;1136;51.574;7.706;2024-03-02T16:50:31;4.40;;;3.00;;
2257;SDS011;1136;51.574;7.706;2024-03-02T16:53:35;1.77;;;1.67;;
2257;SDS011;1136;51.574;7.706;2024-03-02T16:56:43;2.70;;;2.50;;
2257;SDS011;1136;51.574;7.706;2024-03-02T16:59:50;5.83;;;2.60;;
2257;SDS011;1136;51.574;7.706;2024-03-02T17:02:54;3.37;;;3.07;;
2257;SDS011;1136;51.574;7.706;2024-03-02T17:05:58;4.37;;;2.63;;
2257;SDS011;1136;51.574;7.706;2024-03-02T17:09:03;3.13;;;2.83;;
2257;SDS011;1136;51.574;7.706;2024-03-02T17:12:07;3.53;;;3.23;;
2257;SDS011;1136;51.574;7.706;2024-03-02T17:15:11;3.90;;;3.50;;
2257;SDS011;1136;51.574;7.706;2024-03-02T17:18:15;3.53;;;3.00;;
2257;SDS011;1136;51.574;7.706;2024-03-02T17:21:20;4.77;;;4.27;;
2257;SDS011;1136;51.574;7.706;2024-03-02T17:24:24;3.63;;;3.33;;
2257;SDS011;1136;51.574;7.706;2024-03-02T17:27:28;5.40;;;4.23;;
2257;SDS011;1136;51.574;7.706;2024-03-02T17:30:35;3.47;;;3.17;;
2257;SDS011;1136;51.574;7.706;2024-03-02T17:33:39;3.77;;;2.93;;
2257;SDS011;1136;51.574;7.706;2024-03-02T17:36:43;3.83;;;3.27;;
2257;SDS011;1136;51.574;7.706;2024-03-02T17:39:47;4.40;;;3.13;;
2257;SDS011;1136;51.574;7.706;2024-03-02T17:42:51;3.00;;;2.80;;
2257;SDS011;1136;51.574;7.706;2024-03-02T17:45:56;4.53;;;3.03;;
2257;SDS011;1136;51.574;7.706;2024-03-02T17:48:59;3.10;;;2.80;;
2257;SDS011;1136;51.574;7.706;2024-03-02T17:52:04;2.90;;;2.43;;
2257;SDS011;1136;51.574;7.706;2024-03-02T17:55:11;2.63;;;2.43;;
2257;SDS011;1136;51.574;7.706;2024-03-02T17:58:20;3.20;;;3.00;;
2257;SDS011;1136;51.574;7.706;2024-03-02T18:01:25;2.90;;;2.70;;
2257;SDS011;1136;51.574;7.706;2024-03-02T18:04:33;4.43;;;3.50;;
2257;SDS011;1136;51.574;7.706;2024-03-02T18:07:40;6.83;;;6.13;;
2257;SDS011;1136;51.574;7.706;2024-03-02T18:10:47;6.70;;;5.43;;
2257;SDS011;1136;51.574;7.706;2024-03-02T18:13:52;6.87;;;6.20;;
2257;SDS011;1136;51.574;7.706;2024-03-02T18:16:56;9.53;;;7.20;;
2257;SDS011;1136;51.574;7.706;2024-03-02T18:20:03;7.87;;;7.20;;
2257;SDS011;1136;51.574;7.706;2024-03-02T18:23:08;16.70;;;14.33;;
2257;SDS011;1136;51.574;7.706;2024-03-02T18:26:12;18.80;;;16.90;;
2257;SDS011;1136;51.574;7.706;2024-03-02T18:29:16;16.73;;;15.27;;
2257;SDS011;1136;51.574;7.706;2024-03-02T18:32:21;12.03;;;10.93;;
2257;SDS011;1136;51.574;7.706;2024-03-02T18:35:26;7.50;;;6.90;;
2257;SDS011;1136;51.574;7.706;2024-03-02T18:38:31;4.67;;;4.27;;
2257;SDS011;1136;51.574;7.706;2024-03-02T18:41:38;4.60;;;4.23;;
2257;SDS011;1136;51.574;7.706;2024-03-02T18:44:42;5.47;;;4.80;;
2257;SDS011;1136;51.574;7.706;2024-03-02T18:47:49;4.20;;;3.87;;
2257;SDS011;1136;51.574;7.706;2024-03-02T18:50:53;5.83;;;5.33;;
2257;SDS011;1136;51.574;7.706;2024-03-02T18:53:58;4.60;;;4.23;;
2257;SDS011;1136;51.574;7.706;2024-03-02T18:57:05;4.43;;;4.03;;
2257;SDS011;1136;51.574;7.706;2024-03-02T19:00:12;3.77;;;3.40;;
2257;SDS011;1136;51.574;7.706;2024-03-02T19:03:18;4.30;;;4.00;;
2257;SDS011;1136;51.574;7.706;2024-03-02T19:06:23;4.53;;;4.10;;
2257;SDS011;1136;51.574;7.706;2024-03-02T19:09:27;4.47;;;4.10;;